Time;durP1;ratioP1;P1;durP2;ratioP2;P2;SDS_P1;SDS_P2;PMS_P1;PMS_P2;Temp;Humidity;BMP_temperature;BMP_pressure;BME280_temperature;BME280_humidity;BME280_pressure;Samples;Min_cycle;Max_cycle;Signal;HPM_P1;HPM_P2
2023/04/13 00:00:32;;;;;;;0.30;0.10;;;7.80;99.90;;;;;;5117540;28;20442;-57
2023/04/13 00:03:02;;;;;;;0.30;0.10;;;7.80;99.90;;;;;;5117805;28;20839;-56
2023/04/13 00:05:29;;;;;;;0.40;0.20;;;7.80;99.90;;;;;;5117909;28;20428;-56
2023/04/13 00:08:01;;;;;;;0.30;0.10;;;7.70;99.90;;;;;;5117717;28;20415;-56
2023/04/13 00:10:30;;;;;;;0.40;0.20;;;7.70;99.90;;;;;;5117781;28;20723;-56
2023/04/13 00:13:00;;;;;;;0.30;0.20;;;7.70;99.90;;;;;;5117685;28;20416;-57
2023/04/13 00:15:27;;;;;;;0.30;0.10;;;7.70;99.90;;;;;;5117783;28;20704;-53
2023/04/13 00:17:54;;;;;;;0.35;0.15;;;7.70;99.90;;;;;;5116872;28;20832;-56
2023/04/13 00:20:22;;;;;;;0.30;0.10;;;7.70;99.90;;;;;;5117398;28;20428;-56
2023/04/13 00:22:50;;;;;;;0.40;0.10;;;7.80;99.90;;;;;;5117750;28;20416;-53
2023/04/13 00:25:17;;;;;;;0.40;0.10;;;7.70;99.90;;;;;;5116415;28;20425;-56
2023/04/13 00:27:44;;;;;;;0.38;0.10;;;7.70;99.90;;;;;;5117457;28;20424;-55
2023/04/13 00:30:14;;;;;;;0.40;0.20;;;7.70;99.90;;;;;;5117456;28;20473;-56
2023/04/13 00:32:42;;;;;;;0.38;0.20;;;7.80;99.90;;;;;;5115902;28;20728;-55
2023/04/13 00:35:11;;;;;;;0.40;0.20;;;7.80;99.90;;;;;;5115671;28;20435;-54
2023/04/13 00:37:41;;;;;;;0.30;0.10;;;7.80;99.90;;;;;;5115553;28;20443;-54
2023/04/13 00:40:10;;;;;;;0.30;0.10;;;7.80;99.90;;;;;;5115886;28;20446;-55
2023/04/13 00:42:37;;;;;;;0.40;0.10;;;7.80;99.90;;;;;;5116758;28;20440;-54
2023/04/13 00:45:05;;;;;;;0.30;0.10;;;7.80;99.90;;;;;;5116958;28;20431;-54
2023/04/13 00:47:34;;;;;;;0.40;0.10;;;7.80;99.90;;;;;;5116760;28;20416;-56
2023/04/13 00:50:03;;;;;;;0.30;0.10;;;7.80;99.90;;;;;;5116915;28;20535;-53
2023/04/13 00:52:33;;;;;;;0.40;0.20;;;7.80;99.90;;;;;;5116349;28;20456;-54
2023/04/13 00:55:02;;;;;;;0.40;0.20;;;7.70;99.90;;;;;;5116351;28;20428;-54
2023/04/13 00:57:31;;;;;;;0.90;0.30;;;7.70;99.90;;;;;;5115912;28;20427;-55
2023/04/13 00:59:58;;;;;;;0.30;0.10;;;7.70;99.90;;;;;;5075186;28;20455;-57
2023/04/13 01:02:26;;;;;;;0.35;0.10;;;7.70;99.90;;;;;;5073843;28;20823;-55
2023/04/13 01:04:55;;;;;;;0.40;0.10;;;7.70;99.90;;;;;;5074359;28;20442;-55
2023/04/13 01:07:27;;;;;;;0.40;0.20;;;7.60;99.90;;;;;;5074449;28;20419;-57
2023/04/13 01:10:04;;;;;;;0.90;0.15;;;7.50;99.90;;;;;;5075717;28;20975;-55
2023/04/13 01:12:38;;;;;;;0.30;0.10;;;7.50;99.90;;;;;;5075544;28;20423;-55
2023/04/13 01:15:10;;;;;;;0.30;0.10;;;7.50;99.90;;;;;;5075606;28;20762;-55
2023/04/13 01:17:40;;;;;;;0.30;0.10;;;7.50;99.90;;;;;;5075700;28;20431;-56
2023/04/13 01:20:12;;;;;;;0.35;0.10;;;7.50;99.90;;;;;;5075813;28;20431;-56
2023/04/13 01:22:44;;;;;;;0.40;0.20;;;7.40;99.90;;;;;;5075229;28;20480;-57
2023/04/13 01:25:31;;;;;;;0.50;0.20;;;7.50;99.90;;;;;;5074488;28;20419;-53
2023/04/13 01:28:02;;;;;;;0.30;0.20;;;7.40;99.90;;;;;;5073537;28;20728;-54
2023/04/13 01:30:31;;;;;;;0.40;0.20;;;7.50;99.90;;;;;;5074049;28;20825;-57
2023/04/13 01:33:01;;;;;;;1.00;0.20;;;7.50;99.90;;;;;;5074459;28;20424;-56
2023/04/13 01:35:29;;;;;;;0.30;0.17;;;7.60;99.90;;;;;;5074744;28;20444;-55
2023/04/13 01:37:56;;;;;;;0.30;0.10;;;7.60;99.90;;;;;;5074588;28;20426;-57
2023/04/13 01:40:26;;;;;;;1.00;0.10;;;7.50;99.90;;;;;;5074781;28;20423;-55
2023/04/13 01:42:53;;;;;;;1.10;0.20;;;7.50;99.90;;;;;;5075207;28;20423;-55
2023/04/13 01:45:25;;;;;;;0.40;0.10;;;7.50;99.90;;;;;;5074179;28;20508;-55
2023/04/13 01:48:00;;;;;;;0.30;0.10;;;7.50;99.90;;;;;;5074616;28;20426;-57
2023/04/13 01:50:29;;;;;;;0.40;0.10;;;7.40;99.90;;;;;;5073571;28;20431;-56
2023/04/13 01:53:07;;;;;;;0.60;0.10;;;7.40;99.90;;;;;;5073172;28;20463;-54
2023/04/13 01:55:37;;;;;;;0.30;0.10;;;7.30;99.90;;;;;;5074111;28;20879;-57
2023/04/13 01:58:09;;;;;;;0.30;0.10;;;7.30;99.90;;;;;;5083425;28;20420;-54
2023/04/13 02:00:37;;;;;;;0.30;0.20;;;7.30;99.90;;;;;;5114818;28;20796;-57
2023/04/13 02:03:06;;;;;;;0.30;0.10;;;7.30;99.90;;;;;;5114476;28;20411;-58
2023/04/13 02:05:34;;;;;;;0.50;0.20;;;7.30;99.90;;;;;;5115887;28;20867;-57
2023/04/13 02:08:02;;;;;;;0.50;0.20;;;7.30;99.90;;;;;;5115355;28;20700;-55
2023/04/13 02:10:30;;;;;;;0.40;0.20;;;7.30;99.90;;;;;;5115672;28;20867;-55
2023/04/13 02:12:57;;;;;;;0.40;0.20;;;7.30;99.90;;;;;;5115084;28;20510;-55
2023/04/13 02:15:25;;;;;;;0.30;0.17;;;7.20;99.90;;;;;;5115618;28;20436;-57
2023/04/13 02:17:54;;;;;;;0.40;0.20;;;7.10;99.90;;;;;;5115143;28;20424;-57
2023/04/13 02:20:21;;;;;;;0.50;0.20;;;7.00;99.90;;;;;;5115442;28;20424;-53
2023/04/13 02:22:48;;;;;;;0.38;0.10;;;7.00;99.90;;;;;;5114962;28;20420;-56
2023/04/13 02:25:16;;;;;;;0.40;0.20;;;7.00;99.90;;;;;;5115659;28;20499;-55
2023/04/13 02:27:44;;;;;;;0.60;0.10;;;7.00;99.90;;;;;;5115661;28;20847;-57
2023/04/13 02:30:12;;;;;;;0.40;0.20;;;7.20;99.90;;;;;;5115427;28;20791;-57
2023/04/13 02:32:41;;;;;;;0.35;0.20;;;7.20;99.90;;;;;;5115322;28;20482;-57
2023/04/13 02:35:10;;;;;;;0.30;0.10;;;7.10;99.90;;;;;;5115104;28;20526;-58
2023/04/13 02:37:39;;;;;;;0.30;0.20;;;7.10;99.90;;;;;;5115367;28;20504;-57
2023/04/13 02:40:09;;;;;;;0.70;0.20;;;7.10;99.90;;;;;;5114823;28;20723;-56
2023/04/13 02:42:37;;;;;;;0.40;0.20;;;7.10;99.90;;;;;;5115946;28;20483;-57
2023/04/13 02:45:06;;;;;;;0.30;0.20;;;7.10;99.90;;;;;;5115361;28;20867;-57
2023/04/13 02:47:33;;;;;;;2.20;0.20;;;7.10;99.90;;;;;;5114843;28;20427;-56
2023/04/13 02:50:01;;;;;;;0.43;0.20;;;7.10;99.90;;;;;;5113522;28;20488;-57
2023/04/13 02:52:30;;;;;;;1.02;0.20;;;7.00;99.90;;;;;;5114090;28;20431;-57
2023/04/13 02:54:57;;;;;;;0.40;0.20;;;7.20;99.90;;;;;;5114272;28;20489;-58
2023/04/13 02:57:24;;;;;;;0.35;0.20;;;7.20;99.90;;;;;;5115242;28;20431;-58
2023/04/13 02:59:52;;;;;;;0.80;0.20;;;7.20;99.90;;;;;;5114840;28;20432;-57
2023/04/13 03:02:19;;;;;;;0.30;0.20;;;7.20;99.90;;;;;;5114959;28;20727;-57
2023/04/13 03:04:46;;;;;;;0.60;0.30;;;7.20;99.90;;;;;;5118870;28;20434;-56
2023/04/13 03:07:13;;;;;;;0.40;0.20;;;7.10;99.90;;;;;;5119060;28;20416;-58
2023/04/13 03:09:43;;;;;;;0.38;0.20;;;7.10;99.90;;;;;;5119396;28;20428;-58
2023/04/13 03:12:10;;;;;;;0.30;0.15;;;7.20;99.90;;;;;;5118510;28;20415;-58
2023/04/13 03:14:37;;;;;;;0.50;0.23;;;7.20;99.90;;;;;;5118190;28;20428;-57
2023/04/13 03:17:06;;;;;;;0.40;0.20;;;7.20;99.90;;;;;;5118333;28;20423;-58
2023/04/13 03:19:34;;;;;;;0.50;0.20;;;7.10;99.90;;;;;;5116888;28;20447;-57
2023/04/13 03:22:01;;;;;;;0.52;0.30;;;7.10;99.90;;;;;;5117364;28;20855;-58
2023/04/13 03:24:29;;;;;;;0.60;0.30;;;6.90;99.90;;;;;;5118753;28;20434;-57
2023/04/13 03:26:58;;;;;;;0.40;0.20;;;6.90;99.90;;;;;;5118499;28;20416;-57
2023/04/13 03:29:25;;;;;;;0.40;0.20;;;7.00;99.90;;;;;;5118406;28;20424;-57
2023/04/13 03:31:52;;;;;;;0.30;0.20;;;6.90;99.90;;;;;;5118800;28;20412;-58
2023/04/13 03:34:19;;;;;;;0.40;0.10;;;7.00;99.90;;;;;;5117688;28;20424;-57
2023/04/13 03:36:46;;;;;;;0.40;0.20;;;7.00;99.90;;;;;;5117496;28;20952;-57
2023/04/13 03:39:13;;;;;;;0.50;0.20;;;7.00;99.90;;;;;;5116237;28;20427;-58
2023/04/13 03:41:40;;;;;;;0.40;0.20;;;7.00;99.90;;;;;;5116542;28;20720;-57
2023/04/13 03:44:09;;;;;;;0.60;0.20;;;7.00;99.90;;;;;;5117127;28;20424;-58
2023/04/13 03:46:37;;;;;;;0.40;0.10;;;7.00;99.90;;;;;;5117731;28;20415;-56
2023/04/13 03:49:08;;;;;;;0.60;0.20;;;7.00;99.90;;;;;;5117244;28;20905;-56
2023/04/13 03:51:36;;;;;;;0.38;0.17;;;7.00;99.90;;;;;;5117349;28;20416;-57
2023/04/13 03:54:03;;;;;;;0.40;0.20;;;7.00;99.90;;;;;;5117184;28;20424;-58
2023/04/13 03:56:31;;;;;;;0.40;0.20;;;7.00;99.90;;;;;;5117162;28;20420;-58
2023/04/13 03:58:58;;;;;;;0.30;0.20;;;7.10;99.90;;;;;;5117832;28;20436;-59
2023/04/13 04:01:27;;;;;;;0.90;0.20;;;7.30;99.90;;;;;;5117329;28;20427;-58
2023/04/13 04:03:55;;;;;;;0.70;0.20;;;7.40;99.90;;;;;;5116771;28;20516;-58
2023/04/13 04:06:23;;;;;;;0.40;0.20;;;7.50;99.90;;;;;;5114435;28;20705;-58
2023/04/13 04:08:50;;;;;;;0.70;0.20;;;7.70;99.90;;;;;;5114200;28;20709;-56
2023/04/13 04:11:17;;;;;;;0.40;0.20;;;7.80;99.90;;;;;;5114096;28;20412;-59
2023/04/13 04:13:44;;;;;;;0.40;0.20;;;7.80;99.90;;;;;;5113683;28;20428;-59
2023/04/13 04:16:11;;;;;;;0.30;0.20;;;7.80;99.90;;;;;;5114128;28;20424;-58
2023/04/13 04:18:40;;;;;;;0.45;0.20;;;7.60;99.90;;;;;;5114277;28;20611;-59
2023/04/13 04:21:08;;;;;;;0.50;0.30;;;7.60;99.90;;;;;;5114506;28;20666;-59
2023/04/13 04:23:36;;;;;;;0.70;0.20;;;7.50;99.90;;;;;;5113394;28;20777;-59
2023/04/13 04:26:04;;;;;;;0.30;0.20;;;7.40;99.90;;;;;;5113929;28;20423;-57
2023/04/13 04:28:37;;;;;;;0.50;0.20;;;7.50;99.90;;;;;;5114300;28;20412;-59
2023/04/13 04:31:06;;;;;;;0.40;0.20;;;7.50;99.90;;;;;;5113564;28;20420;-58
2023/04/13 04:33:33;;;;;;;0.43;0.20;;;7.60;99.90;;;;;;5115267;28;20471;-59
2023/04/13 04:36:03;;;;;;;0.45;0.20;;;7.40;99.90;;;;;;5114670;28;20424;-59
2023/04/13 04:38:31;;;;;;;0.40;0.20;;;7.40;99.90;;;;;;5098056;28;20438;-59
2023/04/13 04:41:00;;;;;;;0.40;0.20;;;7.50;99.90;;;;;;5095409;28;20422;-58
2023/04/13 04:43:29;;;;;;;0.60;0.20;;;7.50;99.90;;;;;;5094505;28;20594;-58
2023/04/13 04:45:57;;;;;;;1.00;0.20;;;7.50;99.90;;;;;;5096397;28;20413;-58
2023/04/13 04:48:25;;;;;;;0.50;0.20;;;7.40;99.90;;;;;;5102952;28;20505;-58
2023/04/13 04:50:54;;;;;;;0.40;0.20;;;7.40;99.90;;;;;;5095674;28;20543;-58
2023/04/13 04:53:23;;;;;;;0.97;0.20;;;7.40;99.90;;;;;;5095751;28;20418;-58
2023/04/13 04:55:50;;;;;;;0.90;0.30;;;7.40;99.90;;;;;;5094794;28;20434;-57
2023/04/13 04:58:18;;;;;;;0.90;0.30;;;7.40;99.90;;;;;;5094448;28;20517;-57
2023/04/13 05:00:46;;;;;;;0.50;0.30;;;7.40;99.90;;;;;;5095081;28;20413;-58
2023/04/13 05:03:13;;;;;;;0.60;0.20;;;7.30;99.90;;;;;;5094342;28;20428;-58
2023/04/13 05:05:40;;;;;;;1.85;0.30;;;7.20;99.90;;;;;;5095206;28;20421;-58
2023/04/13 05:08:08;;;;;;;1.38;0.30;;;7.30;99.90;;;;;;5095535;28;20779;-58
2023/04/13 05:10:36;;;;;;;1.55;0.43;;;7.20;99.90;;;;;;5094349;28;20421;-58
2023/04/13 05:13:03;;;;;;;0.60;0.30;;;7.20;99.90;;;;;;5095237;28;20517;-56
2023/04/13 05:15:30;;;;;;;0.70;0.20;;;7.20;99.90;;;;;;5095138;28;20438;-58
2023/04/13 05:17:58;;;;;;;0.47;0.20;;;7.30;99.90;;;;;;5095172;28;20856;-58
2023/04/13 05:20:26;;;;;;;0.80;0.20;;;7.40;99.90;;;;;;5093392;28;20818;-57
2023/04/13 05:22:53;;;;;;;0.90;0.30;;;7.40;99.90;;;;;;5092479;28;20501;-58
2023/04/13 05:25:21;;;;;;;0.80;0.30;;;7.40;99.90;;;;;;5093139;28;20448;-57
2023/04/13 05:27:49;;;;;;;0.70;0.20;;;7.40;99.90;;;;;;5091498;28;20418;-58
2023/04/13 05:30:17;;;;;;;0.60;0.20;;;7.30;99.90;;;;;;5093032;28;20440;-57
2023/04/13 05:32:44;;;;;;;0.75;0.30;;;7.30;99.90;;;;;;5093052;28;20433;-57
2023/04/13 05:35:12;;;;;;;0.90;0.30;;;7.30;99.90;;;;;;5094264;28;20825;-55
2023/04/13 05:37:39;;;;;;;0.60;0.30;;;7.40;99.90;;;;;;5093462;28;20432;-57
2023/04/13 05:40:13;;;;;;;0.70;0.30;;;7.40;99.90;;;;;;5092514;28;20495;-58
2023/04/13 05:42:42;;;;;;;0.70;0.20;;;7.40;99.90;;;;;;5092479;28;20418;-57
2023/04/13 05:45:11;;;;;;;1.50;0.30;;;7.40;99.90;;;;;;5095288;28;20841;-58
2023/04/13 05:47:39;;;;;;;1.50;0.20;;;7.50;99.90;;;;;;5094893;28;20421;-57
2023/04/13 05:50:08;;;;;;;1.25;0.40;;;7.50;99.90;;;;;;5094182;28;20433;-57
2023/04/13 05:52:35;;;;;;;1.20;0.20;;;7.50;99.90;;;;;;5094070;28;20973;-58
2023/04/13 05:55:04;;;;;;;1.30;0.80;;;7.40;99.90;;;;;;5094669;28;20560;-57
2023/04/13 05:57:31;;;;;;;0.60;0.20;;;7.40;99.90;;;;;;5095144;28;20436;-58
2023/04/13 05:59:59;;;;;;;0.77;0.20;;;7.40;99.90;;;;;;5092421;28;20878;-58
2023/04/13 06:02:29;;;;;;;1.80;0.40;;;7.50;99.90;;;;;;5092409;28;20444;-58
2023/04/13 06:04:56;;;;;;;1.20;0.30;;;7.50;99.90;;;;;;5093054;28;20738;-58
2023/04/13 06:07:24;;;;;;;0.40;0.20;;;7.60;99.90;;;;;;5093885;28;20741;-58
2023/04/13 06:09:52;;;;;;;0.55;0.30;;;7.70;99.90;;;;;;5093743;28;20849;-58
2023/04/13 06:12:19;;;;;;;0.90;0.30;;;7.70;99.90;;;;;;5093841;28;20418;-58
2023/04/13 06:14:46;;;;;;;0.50;0.20;;;7.90;99.90;;;;;;5093552;28;20438;-57
2023/04/13 06:17:13;;;;;;;2.57;0.30;;;7.90;99.90;;;;;;5092021;28;20520;-56
2023/04/13 06:19:42;;;;;;;1.10;0.20;;;8.00;99.90;;;;;;5095755;28;20433;-55
2023/04/13 06:22:09;;;;;;;0.57;0.20;;;7.90;99.90;;;;;;5091767;28;20425;-58
2023/04/13 06:24:36;;;;;;;0.95;0.30;;;7.80;99.90;;;;;;5101436;28;20439;-57
2023/04/13 06:27:03;;;;;;;0.70;0.30;;;7.80;99.90;;;;;;5096555;28;20409;-58
2023/04/13 06:29:30;;;;;;;2.50;0.20;;;7.80;99.90;;;;;;5108520;28;20454;-57
2023/04/13 06:31:57;;;;;;;0.85;0.20;;;7.80;99.90;;;;;;5107561;28;21014;-58
2023/04/13 06:34:25;;;;;;;0.70;0.30;;;7.70;99.90;;;;;;5091197;28;20425;-58
2023/04/13 06:36:53;;;;;;;0.50;0.30;;;7.70;99.90;;;;;;5092196;28;20463;-58
2023/04/13 06:39:20;;;;;;;2.30;0.30;;;7.80;99.90;;;;;;5096524;28;20471;-56
2023/04/13 06:41:47;;;;;;;0.93;0.30;;;7.90;99.90;;;;;;5102457;28;20417;-57
2023/04/13 06:44:15;;;;;;;0.50;0.20;;;8.00;99.90;;;;;;5096170;28;20437;-58
2023/04/13 06:46:42;;;;;;;0.80;0.40;;;8.00;99.90;;;;;;5104158;28;20518;-57
2023/04/13 06:49:09;;;;;;;1.35;0.30;;;8.00;99.90;;;;;;5112133;28;20427;-56
2023/04/13 06:51:36;;;;;;;0.40;0.20;;;7.90;99.90;;;;;;5106425;28;20424;-58
2023/04/13 06:54:05;;;;;;;0.90;0.30;;;8.00;99.90;;;;;;5098581;28;20434;-59
2023/04/13 06:56:32;;;;;;;0.80;0.20;;;8.20;99.90;;;;;;5115957;28;20731;-58
2023/04/13 06:59:00;;;;;;;0.70;0.20;;;8.40;99.90;;;;;;5115736;28;20424;-57
2023/04/13 07:01:27;;;;;;;0.70;0.20;;;8.50;99.90;;;;;;5099864;28;20485;-58
2023/04/13 07:03:54;;;;;;;1.58;0.20;;;8.70;99.90;;;;;;5115098;28;20416;-58
2023/04/13 07:06:21;;;;;;;0.50;0.20;;;8.80;99.90;;;;;;5114406;28;20412;-58
2023/04/13 07:08:49;;;;;;;0.47;0.20;;;8.80;99.90;;;;;;5114286;28;20848;-60
2023/04/13 07:11:18;;;;;;;1.35;0.20;;;8.70;99.90;;;;;;5115555;28;20498;-60
2023/04/13 07:13:45;;;;;;;0.68;0.25;;;8.80;99.90;;;;;;5114403;28;20424;-58
2023/04/13 07:16:12;;;;;;;1.52;0.20;;;8.80;99.90;;;;;;5115690;28;20432;-59
2023/04/13 07:18:39;;;;;;;0.80;0.25;;;9.00;99.90;;;;;;5114686;28;20519;-61
2023/04/13 07:21:07;;;;;;;0.50;0.20;;;9.10;99.90;;;;;;5104097;28;20429;-57
2023/04/13 07:23:34;;;;;;;1.25;0.30;;;9.10;99.90;;;;;;5095813;28;20432;-59
2023/04/13 07:26:01;;;;;;;1.40;0.30;;;9.10;99.90;;;;;;5105552;28;20828;-59
2023/04/13 07:28:30;;;;;;;1.20;0.30;;;9.00;99.90;;;;;;5115224;28;20423;-58
2023/04/13 07:30:57;;;;;;;0.50;0.20;;;9.00;99.90;;;;;;5104985;28;20830;-59
2023/04/13 07:33:24;;;;;;;0.73;0.30;;;9.10;99.90;;;;;;5095905;28;20420;-55
2023/04/13 07:35:53;;;;;;;0.70;0.20;;;9.10;99.90;;;;;;5111336;28;20425;-58
2023/04/13 07:38:21;;;;;;;1.40;0.40;;;9.00;99.90;;;;;;5099420;28;20559;-58
2023/04/13 07:40:48;;;;;;;1.10;0.30;;;8.90;99.90;;;;;;5111204;28;20420;-58
2023/04/13 07:43:16;;;;;;;1.60;0.30;;;8.90;99.90;;;;;;5111483;28;20412;-57
2023/04/13 07:45:44;;;;;;;1.40;0.20;;;9.00;99.90;;;;;;5096970;28;20446;-58
2023/04/13 07:48:12;;;;;;;1.50;0.30;;;9.00;99.90;;;;;;5105143;28;20416;-57
2023/04/13 07:50:43;;;;;;;0.90;0.30;;;9.30;99.90;;;;;;5103736;28;20843;-58
2023/04/13 07:53:11;;;;;;;0.85;0.20;;;9.40;99.90;;;;;;5113137;28;20420;-58
2023/04/13 07:55:39;;;;;;;1.30;0.30;;;9.20;99.90;;;;;;5110569;28;20830;-58
2023/04/13 07:58:06;;;;;;;1.00;0.30;;;9.00;99.90;;;;;;5094452;28;20837;-58
2023/04/13 08:00:35;;;;;;;0.60;0.20;;;8.90;99.90;;;;;;5093339;28;20422;-58
2023/04/13 08:03:05;;;;;;;0.90;0.30;;;8.80;99.90;;;;;;5110306;28;20434;-58
2023/04/13 08:05:35;;;;;;;1.40;0.30;;;8.90;99.90;;;;;;5097755;28;20854;-58
2023/04/13 08:08:03;;;;;;;0.60;0.30;;;9.00;99.90;;;;;;5093415;28;20902;-59
2023/04/13 08:10:30;;;;;;;0.60;0.30;;;9.10;99.90;;;;;;5092512;28;20426;-59
2023/04/13 08:13:00;;;;;;;0.83;0.30;;;9.00;99.90;;;;;;5111623;28;20789;-58
2023/04/13 08:15:28;;;;;;;0.90;0.30;;;8.90;99.90;;;;;;5095812;28;20436;-59
2023/04/13 08:17:57;;;;;;;1.92;0.30;;;8.80;99.90;;;;;;5102374;28;21012;-59
2023/04/13 08:20:26;;;;;;;1.63;0.22;;;8.80;99.90;;;;;;5093633;28;20449;-59
2023/04/13 08:22:54;;;;;;;1.40;0.40;;;9.00;99.90;;;;;;5091861;28;20418;-59
2023/04/13 08:25:22;;;;;;;1.20;0.30;;;9.10;99.90;;;;;;5093807;28;20841;-59
2023/04/13 08:27:49;;;;;;;0.50;0.23;;;9.10;99.90;;;;;;5106926;28;20858;-58
2023/04/13 08:30:17;;;;;;;1.10;0.30;;;9.40;99.90;;;;;;5114153;28;20867;-61
2023/04/13 08:32:46;;;;;;;1.20;0.30;;;9.80;99.90;;;;;;5111775;28;20400;-59
2023/04/13 08:35:16;;;;;;;1.40;0.40;;;10.00;99.90;;;;;;5111777;28;20477;-59
2023/04/13 08:37:45;;;;;;;1.33;0.40;;;10.00;99.90;;;;;;5112219;28;20431;-59
2023/04/13 08:40:14;;;;;;;1.40;0.30;;;10.30;99.90;;;;;;5109848;28;20785;-58
2023/04/13 08:42:42;;;;;;;1.15;0.40;;;10.20;99.90;;;;;;5093812;28;20418;-58
2023/04/13 08:45:10;;;;;;;0.60;0.30;;;10.20;99.90;;;;;;5096335;28;20436;-58
2023/04/13 08:47:39;;;;;;;0.90;0.30;;;10.20;99.90;;;;;;5094406;28;20492;-59
2023/04/13 08:50:08;;;;;;;1.60;0.30;;;10.00;99.90;;;;;;5095010;28;20433;-59
2023/04/13 08:52:36;;;;;;;0.60;0.20;;;9.80;99.90;;;;;;5111255;28;20411;-59
2023/04/13 08:55:05;;;;;;;1.17;0.43;;;9.70;99.90;;;;;;5106564;28;20996;-59
2023/04/13 08:57:34;;;;;;;0.80;0.30;;;9.60;99.90;;;;;;5109016;28;20424;-59
2023/04/13 09:00:07;;;;;;;1.70;0.40;;;9.50;99.90;;;;;;5093810;28;20432;-59
2023/04/13 09:02:38;;;;;;;2.20;0.30;;;9.60;99.90;;;;;;5094662;28;20440;-59
2023/04/13 09:05:14;;;;;;;1.38;0.30;;;9.70;99.90;;;;;;5090079;28;20443;-60
2023/04/13 09:07:43;;;;;;;1.25;0.30;;;9.80;99.90;;;;;;5102783;28;20556;-59
2023/04/13 09:10:15;;;;;;;1.77;0.20;;;9.90;99.90;;;;;;5090934;28;20438;-59
2023/04/13 09:12:42;;;;;;;1.40;0.80;;;10.10;99.90;;;;;;5092294;28;20422;-59
2023/04/13 09:15:13;;;;;;;0.90;0.20;;;10.10;99.90;;;;;;5092359;28;20433;-59
2023/04/13 09:17:40;;;;;;;1.15;0.20;;;10.20;99.90;;;;;;5103989;28;20594;-59
2023/04/13 09:20:17;;;;;;;1.00;0.30;;;10.10;99.90;;;;;;5093341;28;20872;-58
2023/04/13 09:22:44;;;;;;;1.40;0.22;;;10.10;99.90;;;;;;5093366;28;20421;-58
2023/04/13 09:25:26;;;;;;;0.60;0.20;;;10.20;99.90;;;;;;5091022;28;20448;-58
2023/04/13 09:27:54;;;;;;;1.00;0.30;;;10.20;99.90;;;;;;5089830;28;20841;-58
2023/04/13 09:30:23;;;;;;;0.80;0.30;;;10.40;99.90;;;;;;5088641;28;20789;-55
2023/04/13 09:33:03;;;;;;;1.80;0.20;;;10.80;99.90;;;;;;5090575;28;20455;-51
2023/04/13 09:35:31;;;;;;;1.20;0.30;;;10.90;99.90;;;;;;5090036;28;20433;-57
2023/04/13 09:37:58;;;;;;;0.83;0.30;;;11.10;99.90;;;;;;5089579;28;20426;-54
2023/04/13 09:40:27;;;;;;;1.00;0.25;;;11.30;99.90;;;;;;5095874;28;20903;-57
2023/04/13 09:42:55;;;;;;;0.57;0.20;;;11.40;99.90;;;;;;5092795;28;20406;-52
2023/04/13 09:45:23;;;;;;;1.63;0.30;;;11.50;99.90;;;;;;5090317;28;20418;-54
2023/04/13 09:47:51;;;;;;;0.70;0.30;;;11.50;99.90;;;;;;5098389;28;21058;-53
2023/04/13 09:50:22;;;;;;;0.90;0.30;;;11.50;99.90;;;;;;5112043;28;20424;-60
2023/04/13 09:52:59;;;;;;;1.53;0.33;;;11.50;99.90;;;;;;5110134;28;20470;-60
2023/04/13 09:55:28;;;;;;;1.80;0.40;;;11.20;99.90;;;;;;5106253;28;20489;-60
2023/04/13 09:57:56;;;;;;;1.85;0.30;;;11.20;99.90;;;;;;5108995;28;20434;-60
2023/04/13 10:00:24;;;;;;;1.60;0.30;;;11.10;99.90;;;;;;5104206;28;20424;-60
2023/04/13 10:02:54;;;;;;;1.00;0.20;;;11.00;99.90;;;;;;5093423;28;20426;-60
2023/04/13 10:05:21;;;;;;;0.70;0.30;;;11.10;99.90;;;;;;5109213;28;20424;-60
2023/04/13 10:07:49;;;;;;;0.70;0.20;;;11.20;99.90;;;;;;5111110;28;20415;-60
2023/04/13 10:10:16;;;;;;;0.60;0.22;;;11.10;99.90;;;;;;5110286;28;20424;-60
2023/04/13 10:12:48;;;;;;;0.73;0.20;;;11.10;99.90;;;;;;5110651;28;20506;-59
2023/04/13 10:15:27;;;;;;;1.00;0.28;;;11.10;99.90;;;;;;5109942;28;20424;-59
2023/04/13 10:18:05;;;;;;;1.40;0.40;;;11.10;99.90;;;;;;5112444;28;20443;-60
2023/04/13 10:20:33;;;;;;;1.30;0.30;;;11.10;99.90;;;;;;5102886;28;20808;-59
2023/04/13 10:23:01;;;;;;;2.40;0.30;;;11.20;99.90;;;;;;5106952;28;20412;-59
2023/04/13 10:25:28;;;;;;;1.13;0.30;;;11.10;99.90;;;;;;5109385;28;20855;-59
2023/04/13 10:28:00;;;;;;;0.95;0.40;;;11.30;99.90;;;;;;5101755;28;20414;-59
2023/04/13 10:30:30;;;;;;;0.95;0.32;;;11.30;99.90;;;;;;5090264;28;20437;-59
2023/04/13 10:33:06;;;;;;;0.70;0.30;;;11.40;99.90;;;;;;5092545;28;20516;-59
2023/04/13 10:35:36;;;;;;;0.90;0.23;;;11.30;99.90;;;;;;5090119;28;20487;-59
2023/04/13 10:38:04;;;;;;;1.30;0.40;;;11.20;99.90;;;;;;5086787;28;20426;-59
2023/04/13 10:40:43;;;;;;;1.40;0.30;;;11.10;99.90;;;;;;5089714;28;20531;-60
2023/04/13 10:43:11;;;;;;;0.90;0.30;;;11.30;99.90;;;;;;5091001;28;20421;-59
2023/04/13 10:45:39;;;;;;;1.60;0.30;;;11.20;99.90;;;;;;5089837;28;20429;-60
2023/04/13 10:48:07;;;;;;;1.00;0.30;;;11.20;99.90;;;;;;5091935;28;20864;-60
2023/04/13 10:50:34;;;;;;;1.30;0.30;;;11.00;99.90;;;;;;5091339;28;20429;-60
2023/04/13 10:53:04;;;;;;;0.82;0.30;;;10.90;99.90;;;;;;5096123;28;20745;-60
2023/04/13 10:55:32;;;;;;;0.75;0.30;;;11.10;99.90;;;;;;5110508;28;20606;-59
2023/04/13 10:58:02;;;;;;;0.95;0.30;;;11.10;99.90;;;;;;5096020;28;20461;-59
2023/04/13 11:00:32;;;;;;;1.30;0.40;;;11.30;99.90;;;;;;5106203;28;20424;-59
2023/04/13 11:03:01;;;;;;;0.67;0.20;;;11.30;99.90;;;;;;5099039;28;20414;-59
2023/04/13 11:05:28;;;;;;;1.02;0.20;;;11.40;99.90;;;;;;5089872;28;20426;-60
2023/04/13 11:07:57;;;;;;;1.20;0.30;;;11.30;99.90;;;;;;5090390;28;20524;-59
2023/04/13 11:10:26;;;;;;;1.10;0.40;;;11.20;99.90;;;;;;5091968;28;20594;-59
2023/04/13 11:12:56;;;;;;;1.20;0.40;;;11.40;99.90;;;;;;5105577;28;20610;-60
2023/04/13 11:15:25;;;;;;;1.05;0.30;;;11.50;99.90;;;;;;5106115;28;20420;-59
2023/04/13 11:17:57;;;;;;;1.73;0.30;;;11.80;99.90;;;;;;5101006;28;20453;-59
2023/04/13 11:20:32;;;;;;;1.50;0.30;;;11.70;99.90;;;;;;5092257;28;20723;-58
2023/04/13 11:23:01;;;;;;;1.83;0.40;;;11.70;99.90;;;;;;5110111;28;20474;-59
2023/04/13 11:25:29;;;;;;;0.70;0.30;;;11.30;99.90;;;;;;5114000;28;20735;-59
2023/04/13 11:27:59;;;;;;;1.27;0.30;;;11.20;99.90;;;;;;5113920;28;20469;-59
2023/04/13 11:30:27;;;;;;;1.90;0.30;;;11.10;99.90;;;;;;5112706;28;20716;-58
2023/04/13 11:32:58;;;;;;;1.40;0.30;;;11.10;99.90;;;;;;5112349;28;20514;-57
2023/04/13 11:35:26;;;;;;;0.90;0.30;;;10.90;99.90;;;;;;5112397;28;20424;-49
2023/04/13 11:37:58;;;;;;;1.60;0.38;;;10.80;99.90;;;;;;5114552;28;20431;-48
2023/04/13 11:40:28;;;;;;;1.35;0.38;;;10.70;99.90;;;;;;5106913;28;20850;-47
2023/04/13 11:42:58;;;;;;;0.90;0.30;;;10.40;99.90;;;;;;5102561;28;20485;-47
2023/04/13 11:45:28;;;;;;;1.40;0.30;;;10.20;99.90;;;;;;5102722;28;20875;-52
2023/04/13 11:47:59;;;;;;;0.57;0.30;;;9.90;99.90;;;;;;5096423;28;20431;-49
2023/04/13 11:50:27;;;;;;;0.80;0.30;;;9.50;99.90;;;;;;5099470;28;20736;-51
2023/04/13 11:52:56;;;;;;;1.90;0.40;;;9.70;99.90;;;;;;5102836;28;20449;-53
2023/04/13 11:55:25;;;;;;;2.20;0.30;;;10.20;99.90;;;;;;5110363;28;20687;-49
2023/04/13 11:57:54;;;;;;;0.85;0.30;;;10.80;99.90;;;;;;5091946;28;20429;-54
2023/04/13 12:00:24;;;;;;;2.20;0.30;;;10.90;99.90;;;;;;5092900;28;20642;-50
2023/04/13 12:02:52;;;;;;;1.10;0.40;;;11.00;99.90;;;;;;5093381;28;20792;-51
2023/04/13 12:05:25;;;;;;;1.10;0.30;;;11.10;99.90;;;;;;5092601;28;20861;-50
2023/04/13 12:07:53;;;;;;;1.13;0.30;;;11.30;99.90;;;;;;5091614;28;20689;-52
2023/04/13 12:10:25;;;;;;;1.45;0.30;;;11.50;99.90;;;;;;5104937;28;20422;-49
2023/04/13 12:12:59;;;;;;;2.50;0.30;;;11.50;99.90;;;;;;5093604;28;20436;-51
2023/04/13 12:15:28;;;;;;;1.05;0.40;;;11.00;99.90;;;;;;5093791;28;21681;-60
2023/04/13 12:17:56;;;;;;;1.25;0.30;;;11.20;99.90;;;;;;5088158;28;20516;-60
2023/04/13 12:20:25;;;;;;;0.90;0.30;;;11.10;99.90;;;;;;5089964;28;20421;-62
2023/04/13 12:22:52;;;;;;;1.25;0.40;;;11.00;99.90;;;;;;5088591;28;20454;-62
2023/04/13 12:25:21;;;;;;;1.08;0.30;;;11.00;99.90;;;;;;5108061;28;20412;-62
2023/04/13 12:27:52;;;;;;;1.08;0.50;;;11.00;99.90;;;;;;5109569;28;20420;-62
2023/04/13 12:30:21;;;;;;;0.98;0.40;;;11.20;99.90;;;;;;5108017;28;20823;-62
2023/04/13 12:32:52;;;;;;;0.98;0.50;;;11.20;99.90;;;;;;5112196;28;20423;-61
2023/04/13 12:35:19;;;;;;;1.52;0.63;;;11.40;99.90;;;;;;5112617;28;20417;-62
2023/04/13 12:37:49;;;;;;;2.00;0.80;;;12.20;99.90;;;;;;5111856;28;20419;-61
2023/04/13 12:40:17;;;;;;;1.55;0.70;;;12.70;99.90;;;;;;5111658;28;20446;-60
2023/04/13 12:42:45;;;;;;;1.83;0.70;;;13.00;99.90;;;;;;5112911;28;20419;-60
2023/04/13 12:45:12;;;;;;;1.50;0.60;;;13.20;99.90;;;;;;5109008;28;20418;-60
2023/04/13 12:47:40;;;;;;;1.83;0.60;;;12.80;99.90;;;;;;5096575;28;20524;-60
2023/04/13 12:50:09;;;;;;;1.90;0.70;;;12.20;99.90;;;;;;5100047;28;20414;-60
2023/04/13 12:52:39;;;;;;;2.90;0.70;;;11.60;99.90;;;;;;5108956;28;20429;-60
2023/04/13 12:55:10;;;;;;;2.45;0.70;;;11.40;99.90;;;;;;5108805;28;20424;-64
2023/04/13 12:57:38;;;;;;;1.10;0.70;;;11.30;99.90;;;;;;5092632;28;20418;-62
2023/04/13 13:00:09;;;;;;;1.10;0.70;;;11.10;99.90;;;;;;5104628;28;20509;-63